Time;durP1;ratioP1;P1;durP2;ratioP2;P2;SDS_P1;SDS_P2;PMS_P1;PMS_P2;Temp;Humidity;BMP_temperature;BMP_pressure;BME280_temperature;BME280_humidity;BME280_pressure;Samples;Min_cycle;Max_cycle;Signal;HPM_P1;HPM_P2
2023/12/29 00:00:27;;;;;;;4.00;3.20;;;7.50;62.50;;;;;;5117984;27;20051;-78
2023/12/29 00:02:53;;;;;;;4.32;3.30;;;7.50;62.50;;;;;;5119638;27;20027;-77
2023/12/29 00:05:18;;;;;;;3.72;3.20;;;7.50;62.50;;;;;;5119554;27;20058;-77
2023/12/29 00:07:44;;;;;;;4.30;3.05;;;7.50;62.50;;;;;;5116944;28;20110;-78
2023/12/29 00:10:10;;;;;;;4.50;3.25;;;7.50;62.50;;;;;;5117933;28;20066;-77
2023/12/29 00:12:36;;;;;;;3.72;3.17;;;7.50;62.60;;;;;;5116428;28;20386;-78
2023/12/29 00:15:02;;;;;;;4.00;3.03;;;7.50;62.60;;;;;;5117880;27;20028;-78
2023/12/29 00:17:28;;;;;;;4.15;3.13;;;7.50;62.60;;;;;;5120280;27;20474;-77
2023/12/29 00:19:54;;;;;;;3.20;2.75;;;7.50;62.50;;;;;;5116355;28;20066;-78
2023/12/29 00:22:21;;;;;;;5.15;3.10;;;7.50;62.50;;;;;;5121096;27;20031;-76
2023/12/29 00:24:46;;;;;;;3.95;2.95;;;7.60;62.60;;;;;;5119940;27;20030;-77
2023/12/29 00:27:13;;;;;;;3.47;2.90;;;7.60;62.60;;;;;;5115669;27;20395;-77
2023/12/29 00:29:39;;;;;;;4.43;3.08;;;7.60;62.60;;;;;;5117609;28;20119;-77
2023/12/29 00:32:05;;;;;;;4.50;3.20;;;7.50;62.50;;;;;;5119353;27;20027;-76
2023/12/29 00:34:31;;;;;;;3.78;3.13;;;7.60;62.50;;;;;;5114393;28;20032;-77
2023/12/29 00:36:57;;;;;;;4.15;3.08;;;7.60;62.60;;;;;;5120899;27;20112;-77
2023/12/29 00:39:28;;;;;;;3.75;2.85;;;7.60;62.60;;;;;;5117712;27;20114;-78
2023/12/29 00:41:56;;;;;;;4.32;3.38;;;7.60;62.70;;;;;;5128917;27;20084;-77
2023/12/29 00:44:22;;;;;;;3.25;2.90;;;7.50;62.60;;;;;;5115862;28;20135;-77
2023/12/29 00:46:48;;;;;;;3.38;2.95;;;7.50;62.70;;;;;;5116238;28;20032;-78
2023/12/29 00:49:13;;;;;;;4.15;3.30;;;7.50;62.70;;;;;;5115823;27;20364;-77
2023/12/29 00:51:43;;;;;;;3.95;3.28;;;7.50;62.70;;;;;;5119088;27;20065;-77
2023/12/29 00:54:08;;;;;;;3.65;3.20;;;7.50;62.80;;;;;;5126594;27;20385;-78
2023/12/29 00:56:34;;;;;;;5.40;3.30;;;7.50;62.80;;;;;;5120605;27;20023;-79
2023/12/29 00:59:00;;;;;;;3.97;2.80;;;7.50;62.80;;;;;;5136816;27;20019;-78
2023/12/29 01:01:26;;;;;;;3.72;3.00;;;7.50;62.90;;;;;;5134917;27;20051;-77
2023/12/29 01:03:54;;;;;;;3.75;3.00;;;7.50;62.80;;;;;;5118817;27;20047;-77
2023/12/29 01:06:20;;;;;;;3.90;3.08;;;7.50;62.90;;;;;;5118964;27;20397;-77
2023/12/29 01:08:47;;;;;;;3.17;2.88;;;7.50;62.90;;;;;;5118477;27;20023;-78
2023/12/29 01:11:12;;;;;;;4.22;3.15;;;7.50;62.90;;;;;;5118548;27;20019;-76
2023/12/29 01:13:38;;;;;;;4.00;3.20;;;7.50;62.90;;;;;;5135369;27;20027;-76
2023/12/29 01:16:04;;;;;;;3.40;2.97;;;7.50;63.50;;;;;;5118561;27;20354;-78
2023/12/29 01:18:31;;;;;;;3.70;3.10;;;7.50;62.90;;;;;;5116431;27;20069;-77
2023/12/29 01:20:57;;;;;;;4.07;2.95;;;7.50;62.90;;;;;;5118762;27;20391;-76
2023/12/29 01:23:33;;;;;;;3.85;3.22;;;7.50;63.00;;;;;;5110462;27;20019;-77
2023/12/29 01:25:59;;;;;;;3.67;2.80;;;7.50;63.00;;;;;;5115374;28;20371;-78
2023/12/29 01:28:25;;;;;;;3.47;3.15;;;7.50;63.00;;;;;;5117526;27;20088;-77
2023/12/29 01:30:51;;;;;;;4.32;3.30;;;7.50;63.10;;;;;;5136603;27;20076;-77
2023/12/29 01:33:17;;;;;;;3.92;3.40;;;7.50;63.10;;;;;;5131956;27;20468;-77
2023/12/29 01:35:43;;;;;;;4.30;3.28;;;7.50;63.10;;;;;;5118104;27;20055;-78
2023/12/29 01:38:08;;;;;;;4.18;3.42;;;7.40;63.10;;;;;;5136651;27;20426;-77
2023/12/29 01:40:43;;;;;;;4.30;3.17;;;7.50;63.10;;;;;;5117601;27;20487;-77
2023/12/29 01:43:09;;;;;;;3.40;2.95;;;7.50;63.10;;;;;;5137306;27;20464;-78
2023/12/29 01:45:35;;;;;;;4.90;3.53;;;7.50;63.10;;;;;;5118204;27;20034;-78
2023/12/29 01:48:01;;;;;;;4.82;3.40;;;7.40;63.10;;;;;;5118265;27;20528;-77
2023/12/29 01:50:27;;;;;;;4.13;3.33;;;7.40;63.10;;;;;;5117246;27;20049;-78
2023/12/29 01:52:54;;;;;;;3.92;3.20;;;7.50;63.20;;;;;;5114575;28;20027;-77
2023/12/29 01:55:24;;;;;;;4.78;3.45;;;7.40;63.20;;;;;;5095439;28;20031;-77
2023/12/29 01:57:50;;;;;;;3.67;3.17;;;7.50;63.30;;;;;;5095510;28;20046;-78
2023/12/29 02:00:17;;;;;;;4.07;3.20;;;7.50;63.30;;;;;;5107442;27;20019;-77
2023/12/29 02:02:43;;;;;;;4.28;3.28;;;7.50;63.80;;;;;;5098558;27;20473;-77
2023/12/29 02:05:13;;;;;;;3.85;3.15;;;7.50;63.20;;;;;;5117684;27;20079;-78
2023/12/29 02:07:40;;;;;;;4.68;3.42;;;7.50;63.20;;;;;;5115843;27;20107;-76
2023/12/29 02:10:06;;;;;;;4.18;3.50;;;7.50;63.20;;;;;;5123324;27;20362;-78
2023/12/29 02:12:32;;;;;;;4.40;3.30;;;7.50;63.70;;;;;;5113891;28;20028;-76
2023/12/29 02:14:58;;;;;;;4.20;3.30;;;7.50;63.20;;;;;;5114262;28;20061;-76
2023/12/29 02:17:35;;;;;;;4.38;3.20;;;7.50;63.20;;;;;;5114109;28;20032;-76
2023/12/29 02:20:01;;;;;;;4.55;3.35;;;7.50;63.20;;;;;;5113643;28;20049;-77
2023/12/29 02:22:27;;;;;;;4.00;3.20;;;7.50;63.20;;;;;;5106309;27;20110;-77
2023/12/29 02:24:53;;;;;;;4.25;3.20;;;7.50;63.20;;;;;;5117845;27;20127;-77
2023/12/29 02:27:40;;;;;;;3.55;3.05;;;7.50;63.20;;;;;;5135941;27;20027;-76
2023/12/29 02:30:10;;;;;;;4.07;3.33;;;7.50;63.30;;;;;;5124570;27;20085;-77
2023/12/29 02:32:41;;;;;;;3.50;3.20;;;7.50;63.20;;;;;;5114120;28;20392;-78
2023/12/29 02:35:23;;;;;;;4.13;3.38;;;7.50;63.30;;;;;;5116923;27;20026;-77
2023/12/29 02:37:49;;;;;;;3.92;3.20;;;7.50;63.30;;;;;;5135023;27;20106;-76
2023/12/29 02:40:16;;;;;;;3.67;3.10;;;7.50;63.20;;;;;;5118242;27;20036;-76
2023/12/29 02:42:48;;;;;;;4.10;3.25;;;7.50;63.30;;;;;;5121642;27;20478;-77
2023/12/29 02:45:17;;;;;;;4.70;3.28;;;7.50;63.30;;;;;;5096115;27;20031;-77
2023/12/29 02:47:44;;;;;;;4.60;3.30;;;7.50;63.30;;;;;;5129578;27;20092;-77
2023/12/29 02:50:10;;;;;;;3.88;3.28;;;7.50;63.30;;;;;;5134836;27;20381;-77
2023/12/29 02:52:37;;;;;;;3.92;3.45;;;7.50;63.30;;;;;;5113475;28;20042;-78
2023/12/29 02:55:03;;;;;;;4.15;3.40;;;7.50;63.30;;;;;;5125643;27;20023;-78
2023/12/29 02:57:29;;;;;;;4.13;3.42;;;7.50;63.40;;;;;;5113455;27;20112;-77
2023/12/29 02:59:56;;;;;;;3.47;3.17;;;7.50;63.30;;;;;;5131279;27;20028;-77
2023/12/29 03:02:22;;;;;;;4.30;3.28;;;7.50;63.40;;;;;;5128219;27;20591;-77
2023/12/29 03:04:48;;;;;;;3.50;3.13;;;7.50;63.30;;;;;;5124505;27;20027;-76
2023/12/29 03:07:14;;;;;;;5.15;3.80;;;7.60;63.30;;;;;;5118752;27;20039;-77
2023/12/29 03:09:40;;;;;;;3.85;3.15;;;7.50;63.30;;;;;;5106432;27;20389;-77
2023/12/29 03:12:06;;;;;;;4.57;3.33;;;7.50;63.50;;;;;;5134875;27;20023;-77
2023/12/29 03:14:32;;;;;;;6.32;4.03;;;7.50;63.30;;;;;;5106387;28;20031;-77
2023/12/29 03:16:58;;;;;;;4.15;3.58;;;7.50;63.30;;;;;;5109971;27;20023;-78
2023/12/29 03:19:24;;;;;;;4.65;3.38;;;7.50;63.40;;;;;;5135144;27;20065;-78
2023/12/29 03:21:50;;;;;;;4.15;3.20;;;7.50;63.40;;;;;;5115831;27;20023;-78
2023/12/29 03:24:16;;;;;;;4.43;3.30;;;7.50;63.40;;;;;;5123672;27;20023;-78
2023/12/29 03:26:43;;;;;;;3.92;3.17;;;7.50;63.50;;;;;;5132767;27;20027;-78
2023/12/29 03:29:08;;;;;;;3.95;3.53;;;7.50;63.50;;;;;;5113570;28;20372;-78
2023/12/29 03:31:34;;;;;;;4.35;3.20;;;7.50;63.50;;;;;;5114850;27;20024;-77
2023/12/29 03:34:00;;;;;;;4.10;3.30;;;7.50;63.40;;;;;;5116197;27;20058;-77
2023/12/29 03:36:25;;;;;;;3.97;3.08;;;7.50;63.40;;;;;;5109764;28;20035;-77
2023/12/29 03:38:54;;;;;;;4.43;3.28;;;7.50;63.50;;;;;;5113113;28;20035;-78
2023/12/29 03:41:20;;;;;;;4.95;3.33;;;7.50;63.40;;;;;;5131471;27;20035;-79
2023/12/29 03:43:46;;;;;;;4.60;3.20;;;7.60;63.50;;;;;;5133773;27;20449;-77
2023/12/29 03:46:22;;;;;;;4.65;3.50;;;7.60;63.50;;;;;;5121559;28;20048;-77
2023/12/29 03:48:47;;;;;;;4.85;3.40;;;7.60;63.50;;;;;;5119954;28;20028;-78
2023/12/29 03:51:14;;;;;;;4.47;3.35;;;7.60;63.50;;;;;;5134029;27;20369;-77
2023/12/29 03:53:40;;;;;;;3.85;3.20;;;7.60;63.50;;;;;;5134522;27;20023;-77
2023/12/29 03:56:16;;;;;;;4.65;3.60;;;7.60;63.40;;;;;;5112207;28;20041;-77
2023/12/29 03:58:43;;;;;;;4.47;3.50;;;7.60;63.40;;;;;;5113925;28;20378;-77
2023/12/29 04:01:16;;;;;;;4.93;3.55;;;7.60;63.40;;;;;;5112308;28;20044;-77
2023/12/29 04:03:42;;;;;;;4.57;3.78;;;7.60;63.50;;;;;;5116074;28;20114;-77
2023/12/29 04:06:08;;;;;;;4.25;3.55;;;7.60;63.50;;;;;;5114282;27;20105;-77
2023/12/29 04:08:34;;;;;;;6.22;3.90;;;7.60;63.50;;;;;;5116243;28;20058;-77
2023/12/29 04:11:01;;;;;;;4.93;3.78;;;7.60;63.60;;;;;;5117047;28;20020;-77
2023/12/29 04:13:26;;;;;;;5.18;3.83;;;7.60;63.60;;;;;;5134075;27;20035;-78
2023/12/29 04:15:53;;;;;;;6.78;4.18;;;7.60;63.60;;;;;;5114688;28;20026;-77
2023/12/29 04:18:21;;;;;;;6.13;4.00;;;7.50;63.60;;;;;;5106258;28;20023;-78
2023/12/29 04:20:47;;;;;;;5.30;3.92;;;7.60;63.60;;;;;;5132521;28;20521;-78
2023/12/29 04:23:13;;;;;;;5.93;4.25;;;7.50;63.60;;;;;;5134317;28;20070;-77
2023/12/29 04:25:39;;;;;;;4.82;3.75;;;7.60;63.60;;;;;;5115995;28;20027;-76
2023/12/29 04:28:08;;;;;;;5.60;4.25;;;7.60;63.60;;;;;;5113120;28;20779;-78
2023/12/29 04:30:35;;;;;;;5.38;4.00;;;7.60;63.60;;;;;;5112682;28;20111;-77
2023/12/29 04:33:01;;;;;;;6.82;4.47;;;7.60;63.60;;;;;;5115867;28;20053;-77
2023/12/29 04:35:27;;;;;;;6.88;4.75;;;7.60;63.60;;;;;;5109723;28;20050;-78
2023/12/29 04:37:52;;;;;;;6.10;4.22;;;7.60;63.60;;;;;;5082653;28;20030;-76
2023/12/29 04:40:18;;;;;;;5.15;4.47;;;7.60;63.60;;;;;;5117968;27;20028;-79
2023/12/29 04:42:44;;;;;;;6.80;4.82;;;7.60;63.60;;;;;;5119229;27;20035;-77
2023/12/29 04:45:10;;;;;;;5.10;4.10;;;7.60;63.60;;;;;;5137257;27;20381;-77
2023/12/29 04:47:37;;;;;;;5.50;4.10;;;7.60;63.60;;;;;;5121435;27;20039;-79
2023/12/29 04:50:03;;;;;;;4.68;3.95;;;7.60;63.70;;;;;;5092100;27;20027;-78
2023/12/29 04:52:29;;;;;;;5.00;3.67;;;7.60;63.70;;;;;;5134176;27;20076;-77
2023/12/29 04:54:55;;;;;;;5.53;4.03;;;7.60;63.70;;;;;;5115432;27;20031;-77
2023/12/29 04:57:21;;;;;;;5.15;3.85;;;7.60;63.70;;;;;;5082612;28;20435;-76
2023/12/29 04:59:46;;;;;;;5.78;4.20;;;7.60;63.70;;;;;;5109924;27;21608;-77
2023/12/29 05:02:12;;;;;;;5.55;3.95;;;7.60;63.80;;;;;;5113184;28;20043;-77
2023/12/29 05:04:38;;;;;;;5.60;3.95;;;7.60;63.70;;;;;;5115534;27;20027;-76
2023/12/29 05:07:07;;;;;;;5.65;4.00;;;7.60;63.70;;;;;;5099926;28;20496;-78
2023/12/29 05:09:33;;;;;;;5.28;4.00;;;7.60;63.70;;;;;;5102489;28;20160;-77
2023/12/29 05:11:59;;;;;;;6.35;4.05;;;7.60;63.80;;;;;;5115343;27;20476;-78
2023/12/29 05:14:24;;;;;;;5.25;4.18;;;7.60;63.80;;;;;;5115076;28;20035;-77
2023/12/29 05:16:50;;;;;;;5.25;3.97;;;7.50;63.80;;;;;;5118075;27;20392;-77
2023/12/29 05:19:16;;;;;;;4.97;3.72;;;7.50;63.80;;;;;;5115844;27;20046;-77
2023/12/29 05:21:42;;;;;;;4.75;3.90;;;7.50;63.80;;;;;;5117415;27;20059;-78
2023/12/29 05:24:08;;;;;;;5.50;4.38;;;7.60;63.90;;;;;;5131653;27;20516;-77
2023/12/29 05:26:34;;;;;;;7.10;4.72;;;7.60;63.90;;;;;;5123530;27;20031;-78
2023/12/29 05:28:59;;;;;;;5.13;4.00;;;7.60;63.90;;;;;;5137307;27;20457;-78
2023/12/29 05:31:25;;;;;;;4.78;3.70;;;7.50;63.90;;;;;;5134362;27;20134;-78
2023/12/29 05:33:51;;;;;;;5.00;4.10;;;7.50;63.90;;;;;;5134884;27;20092;-77
2023/12/29 05:36:17;;;;;;;5.75;3.65;;;7.60;64.00;;;;;;5114791;27;20024;-78
2023/12/29 05:38:46;;;;;;;4.70;4.07;;;7.50;63.90;;;;;;5116698;28;20027;-77
2023/12/29 05:41:15;;;;;;;5.35;4.13;;;7.60;64.00;;;;;;5099390;27;20023;-77
2023/12/29 05:43:42;;;;;;;4.55;3.75;;;7.50;64.00;;;;;;5112073;28;20031;-78
2023/12/29 05:46:14;;;;;;;5.47;4.20;;;7.50;64.00;;;;;;5132669;27;20544;-77
2023/12/29 05:48:40;;;;;;;5.30;3.90;;;7.50;64.00;;;;;;5111177;27;20070;-78
2023/12/29 05:51:10;;;;;;;4.78;3.92;;;7.60;64.10;;;;;;5117348;27;20035;-76
2023/12/29 05:53:36;;;;;;;6.47;3.85;;;7.50;64.10;;;;;;5101453;27;20023;-76
2023/12/29 05:56:02;;;;;;;6.07;3.95;;;7.50;64.20;;;;;;5108113;27;20030;-78
2023/12/29 05:58:28;;;;;;;6.13;4.72;;;7.50;64.20;;;;;;5105829;27;20027;-77
2023/12/29 06:00:58;;;;;;;5.53;3.90;;;7.50;64.20;;;;;;5128559;27;20043;-78
2023/12/29 06:03:24;;;;;;;5.32;4.15;;;7.60;64.20;;;;;;5119670;27;20015;-78
2023/12/29 06:05:50;;;;;;;4.50;3.75;;;7.60;64.20;;;;;;5102047;28;20023;-77
2023/12/29 06:08:19;;;;;;;5.78;4.18;;;7.60;64.20;;;;;;5113905;28;20548;-77
2023/12/29 06:10:44;;;;;;;5.63;4.20;;;7.60;64.10;;;;;;5101333;27;20534;-79
2023/12/29 06:13:12;;;;;;;4.82;3.83;;;7.60;64.10;;;;;;5103468;28;20482;-78
2023/12/29 06:15:38;;;;;;;5.88;4.70;;;7.60;64.40;;;;;;5131511;27;20146;-78
2023/12/29 06:18:04;;;;;;;4.93;4.03;;;7.60;64.10;;;;;;5116137;27;20024;-78
2023/12/29 06:20:30;;;;;;;5.22;4.10;;;7.60;64.10;;;;;;5113206;27;20080;-76
2023/12/29 06:22:56;;;;;;;5.72;4.38;;;7.60;64.10;;;;;;5112899;27;20441;-78
2023/12/29 06:25:22;;;;;;;6.35;4.55;;;7.70;64.20;;;;;;5119620;27;20043;-78
2023/12/29 06:27:48;;;;;;;6.15;4.53;;;7.70;64.20;;;;;;5097784;27;20027;-77
2023/12/29 06:30:14;;;;;;;7.63;5.15;;;7.70;64.70;;;;;;5135354;27;20472;-77
2023/12/29 06:32:41;;;;;;;5.93;4.60;;;7.70;64.10;;;;;;5117564;27;20492;-79
2023/12/29 06:35:09;;;;;;;6.63;4.70;;;7.70;64.10;;;;;;5136294;27;20157;-77
2023/12/29 06:37:39;;;;;;;4.95;4.28;;;7.70;64.20;;;;;;5109383;28;20031;-77
2023/12/29 06:40:06;;;;;;;7.05;5.30;;;7.70;64.20;;;;;;5132901;27;20121;-77
2023/12/29 06:42:32;;;;;;;7.05;5.15;;;7.70;64.10;;;;;;5131778;27;20043;-80
2023/12/29 06:44:58;;;;;;;6.35;4.80;;;7.70;64.70;;;;;;5097543;28;20059;-77
2023/12/29 06:47:24;;;;;;;7.25;5.32;;;7.70;64.10;;;;;;5098469;27;20450;-78
2023/12/29 06:49:50;;;;;;;6.85;4.82;;;7.70;64.10;;;;;;5113540;28;20110;-76
2023/12/29 06:52:16;;;;;;;8.27;4.70;;;7.70;64.10;;;;;;5113781;28;20062;-75
2023/12/29 06:54:42;;;;;;;7.13;5.10;;;7.70;64.10;;;;;;5113349;28;20381;-74
2023/12/29 06:57:14;;;;;;;6.60;5.05;;;7.80;64.10;;;;;;5096167;28;20023;-75
2023/12/29 06:59:40;;;;;;;7.07;5.32;;;7.80;64.10;;;;;;5096069;28;20064;-74
2023/12/29 07:02:05;;;;;;;6.35;4.90;;;7.80;64.00;;;;;;5129874;27;20077;-75
2023/12/29 07:04:45;;;;;;;6.32;4.57;;;7.80;64.10;;;;;;5104449;28;20039;-76
2023/12/29 07:07:11;;;;;;;7.05;4.90;;;7.80;64.10;;;;;;5110090;27;20034;-75
2023/12/29 07:09:49;;;;;;;8.00;5.10;;;7.80;64.10;;;;;;5099971;28;20032;-79
2023/12/29 07:12:15;;;;;;;6.57;4.43;;;7.80;64.10;;;;;;5105820;27;20111;-74
2023/12/29 07:14:41;;;;;;;6.03;4.78;;;7.90;64.20;;;;;;5117774;27;20069;-74
2023/12/29 07:17:07;;;;;;;6.20;4.40;;;7.90;64.10;;;;;;5105286;27;20027;-76
2023/12/29 07:19:39;;;;;;;6.50;4.72;;;7.90;64.00;;;;;;5115388;27;20019;-75
2023/12/29 07:22:08;;;;;;;6.57;4.70;;;8.00;64.00;;;;;;5108992;28;20069;-76
2023/12/29 07:24:37;;;;;;;7.00;4.60;;;8.00;64.00;;;;;;5106442;28;20034;-77
2023/12/29 07:27:05;;;;;;;5.88;4.38;;;8.00;63.90;;;;;;5113505;28;20405;-77
2023/12/29 07:29:31;;;;;;;6.03;4.40;;;8.00;63.90;;;;;;5110075;27;20083;-77
2023/12/29 07:32:09;;;;;;;6.82;4.80;;;8.00;63.80;;;;;;5113324;28;20027;-75
2023/12/29 07:34:35;;;;;;;6.07;4.90;;;8.00;63.80;;;;;;5111627;28;20028;-77
2023/12/29 07:37:01;;;;;;;6.47;4.90;;;8.00;63.80;;;;;;5114142;28;20081;-77
2023/12/29 07:39:27;;;;;;;6.22;4.45;;;8.10;63.80;;;;;;5114797;28;20032;-78
2023/12/29 07:41:53;;;;;;;6.10;4.70;;;8.10;63.90;;;;;;5118434;27;20023;-81
2023/12/29 07:44:19;;;;;;;7.72;5.60;;;8.10;63.80;;;;;;5127133;28;20392;-81
2023/12/29 07:46:45;;;;;;;6.05;4.80;;;8.00;63.70;;;;;;5100497;28;20114;-79
2023/12/29 07:49:11;;;;;;;6.07;5.00;;;8.10;63.80;;;;;;5114577;27;20387;-83
2023/12/29 07:51:47;;;;;;;6.18;4.63;;;8.10;63.80;;;;;;5113335;28;20469;-78
2023/12/29 07:54:12;;;;;;;5.60;4.10;;;8.10;63.80;;;;;;5106291;28;20055;-79
2023/12/29 07:56:38;;;;;;;6.50;4.30;;;8.10;63.90;;;;;;5096924;28;20070;-83
2023/12/29 07:59:04;;;;;;;6.38;4.50;;;8.10;63.90;;;;;;5098413;28;20019;-78
2023/12/29 08:01:30;;;;;;;4.78;4.05;;;8.10;63.80;;;;;;5111030;28;20039;-82
2023/12/29 08:03:56;;;;;;;6.20;4.68;;;8.10;63.90;;;;;;5103759;28;20034;-82
2023/12/29 08:06:22;;;;;;;5.72;4.30;;;8.10;63.80;;;;;;5103439;28;20035;-83
2023/12/29 08:08:48;;;;;;;6.47;4.40;;;8.10;63.80;;;;;;5115856;28;20423;-72
2023/12/29 08:11:17;;;;;;;5.47;4.70;;;8.10;63.80;;;;;;5119798;27;20477;-74
2023/12/29 08:13:44;;;;;;;6.75;4.60;;;8.10;63.80;;;;;;5118793;27;20031;-73
2023/12/29 08:16:11;;;;;;;7.25;4.70;;;8.20;63.80;;;;;;5102147;27;20031;-74
2023/12/29 08:18:36;;;;;;;6.57;4.53;;;8.20;63.80;;;;;;5119386;27;20023;-73
2023/12/29 08:21:02;;;;;;;5.65;4.40;;;8.20;63.90;;;;;;5132074;27;20024;-71
2023/12/29 08:23:28;;;;;;;5.97;4.57;;;8.20;63.80;;;;;;5098630;28;20034;-73
2023/12/29 08:25:57;;;;;;;6.10;4.85;;;8.30;63.80;;;;;;5116691;28;20110;-75
2023/12/29 08:28:23;;;;;;;6.88;4.35;;;8.20;63.70;;;;;;5116295;28;20023;-81
2023/12/29 08:30:49;;;;;;;6.97;4.85;;;8.20;63.70;;;;;;5116710;28;20026;-80
2023/12/29 08:33:15;;;;;;;5.38;4.38;;;8.30;64.30;;;;;;5123845;27;20106;-77
2023/12/29 08:35:41;;;;;;;6.45;4.53;;;8.20;63.80;;;;;;5132581;27;20480;-79
2023/12/29 08:38:07;;;;;;;5.47;4.00;;;8.30;67.40;;;;;;5079299;28;20032;-78
2023/12/29 08:40:33;;;;;;;4.75;3.72;;;8.50;67.10;;;;;;5096276;28;20028;-82
2023/12/29 08:42:59;;;;;;;8.10;3.85;;;8.60;66.80;;;;;;5096307;28;20506;-81
2023/12/29 08:45:25;;;;;;;6.13;4.45;;;8.60;66.80;;;;;;5101782;28;20040;-79
2023/12/29 08:47:51;;;;;;;5.97;4.40;;;8.70;66.60;;;;;;5108285;27;20084;-76
2023/12/29 08:50:17;;;;;;;5.05;4.15;;;8.80;66.50;;;;;;5114910;28;20028;-75
2023/12/29 08:52:43;;;;;;;7.05;4.50;;;8.80;66.50;;;;;;5115978;28;20023;-75
2023/12/29 08:55:09;;;;;;;6.57;4.80;;;8.70;66.30;;;;;;5118087;27;20080;-74
2023/12/29 08:57:35;;;;;;;7.53;4.72;;;8.70;66.10;;;;;;5136596;27;20380;-78
2023/12/29 09:00:02;;;;;;;6.57;4.75;;;8.80;66.20;;;;;;5118093;27;20457;-79
2023/12/29 09:02:28;;;;;;;5.90;4.70;;;8.80;66.10;;;;;;5137011;27;20096;-75
2023/12/29 09:04:54;;;;;;;6.55;4.75;;;8.80;66.10;;;;;;5117524;27;20023;-74
2023/12/29 09:07:19;;;;;;;6.25;4.88;;;8.80;65.90;;;;;;5117973;27;20496;-75
2023/12/29 09:09:45;;;;;;;6.70;5.10;;;8.80;65.80;;;;;;5136305;27;20089;-74
2023/12/29 09:12:11;;;;;;;6.97;4.72;;;8.90;65.70;;;;;;5136340;27;20027;-77
2023/12/29 09:14:37;;;;;;;6.95;5.07;;;8.90;65.60;;;;;;5117727;27;20153;-74
2023/12/29 09:17:03;;;;;;;6.55;5.10;;;8.90;65.50;;;;;;5117712;27;20019;-74
2023/12/29 09:19:29;;;;;;;7.80;5.07;;;8.90;65.40;;;;;;5117814;27;20030;-75
2023/12/29 09:21:54;;;;;;;6.57;5.05;;;8.90;65.40;;;;;;5136469;27;20572;-75
2023/12/29 09:24:20;;;;;;;6.07;4.63;;;8.90;65.30;;;;;;5117739;27;20457;-76
2023/12/29 09:26:46;;;;;;;7.10;5.43;;;8.90;65.30;;;;;;5117443;27;20031;-74
2023/12/29 09:29:12;;;;;;;6.13;4.60;;;8.90;65.20;;;;;;5135834;27;20042;-74
2023/12/29 09:31:37;;;;;;;8.23;4.95;;;9.00;65.20;;;;;;5117779;27;20019;-73
2023/12/29 09:34:04;;;;;;;5.82;4.85;;;9.00;65.10;;;;;;5135677;27;20529;-76
2023/12/29 09:36:29;;;;;;;5.75;4.45;;;9.10;65.10;;;;;;5130103;27;20034;-75
2023/12/29 09:38:55;;;;;;;7.28;5.18;;;9.10;65.00;;;;;;5099606;27;20031;-78
2023/12/29 09:41:25;;;;;;;5.78;4.70;;;9.10;64.90;;;;;;5117314;27;20031;-76
2023/12/29 09:43:51;;;;;;;6.72;4.80;;;9.20;64.90;;;;;;5112875;28;20100;-76
2023/12/29 09:46:18;;;;;;;7.47;5.40;;;9.10;64.80;;;;;;5102208;28;20447;-77
2023/12/29 09:48:47;;;;;;;6.22;4.63;;;9.10;65.40;;;;;;5124424;27;20055;-79
2023/12/29 09:51:15;;;;;;;5.82;4.45;;;9.10;64.80;;;;;;5109250;28;20083;-78
2023/12/29 09:53:41;;;;;;;6.10;4.57;;;9.10;64.80;;;;;;5114112;27;20019;-80
2023/12/29 09:56:11;;;;;;;7.72;4.75;;;9.10;64.80;;;;;;5117027;27;20491;-77
2023/12/29 09:58:38;;;;;;;5.72;4.90;;;9.10;64.80;;;;;;5115388;27;20110;-75
2023/12/29 10:01:05;;;;;;;5.63;4.57;;;9.20;64.80;;;;;;5134729;27;20099;-79
2023/12/29 10:03:31;;;;;;;6.30;4.53;;;9.20;64.80;;;;;;5114833;28;20031;-77
2023/12/29 10:06:00;;;;;;;6.35;4.45;;;9.20;64.80;;;;;;5120530;27;20062;-78
2023/12/29 10:08:28;;;;;;;6.60;4.68;;;9.20;64.80;;;;;;5110403;27;20032;-79
2023/12/29 10:10:57;;;;;;;6.47;4.80;;;9.20;64.80;;;;;;5133874;27;20031;-77
2023/12/29 10:13:24;;;;;;;5.03;4.38;;;9.20;64.80;;;;;;5135497;27;20098;-78
2023/12/29 10:16:00;;;;;;;6.13;4.60;;;9.20;64.70;;;;;;5131686;27;20070;-77
2023/12/29 10:18:39;;;;;;;5.55;4.35;;;9.20;64.70;;;;;;5125188;27;20034;-79
2023/12/29 10:21:19;;;;;;;5.30;4.30;;;9.20;64.70;;;;;;5096591;27;20032;-79
2023/12/29 10:24:10;;;;;;;6.05;4.20;;;9.20;64.70;;;;;;5075983;28;20032;-79
2023/12/29 10:26:36;;;;;;;5.53;4.25;;;9.30;64.70;;;;;;5084120;28;20067;-79
2023/12/29 10:29:02;;;;;;;6.53;4.47;;;9.30;64.70;;;;;;5114276;28;20451;-78
2023/12/29 10:31:28;;;;;;;5.70;4.20;;;9.30;64.70;;;;;;5095218;28;20019;-79
2023/12/29 10:34:17;;;;;;;6.28;4.55;;;9.30;64.70;;;;;;5099385;27;20072;-80
2023/12/29 10:36:52;;;;;;;6.70;4.20;;;9.30;64.80;;;;;;5115454;27;20419;-80
2023/12/29 10:39:18;;;;;;;6.28;4.57;;;9.30;64.70;;;;;;5120372;27;20036;-79
2023/12/29 10:41:44;;;;;;;5.55;4.20;;;9.30;64.70;;;;;;5096808;28;20023;-80
2023/12/29 10:44:10;;;;;;;5.53;4.28;;;9.40;64.70;;;;;;5098809;27;20106;-78
2023/12/29 10:46:36;;;;;;;5.05;4.28;;;9.40;64.70;;;;;;5114404;27;20584;-81
2023/12/29 10:49:09;;;;;;;4.68;3.83;;;9.40;65.10;;;;;;5104604;27;20023;-78
2023/12/29 10:51:35;;;;;;;5.03;4.43;;;9.40;65.80;;;;;;5116000;27;20460;-78
2023/12/29 10:54:01;;;;;;;5.60;4.28;;;9.50;66.00;;;;;;5120017;27;20106;-79
2023/12/29 10:56:28;;;;;;;5.82;4.10;;;9.60;66.00;;;;;;5095506;28;20031;-80
2023/12/29 10:58:59;;;;;;;6.50;4.47;;;9.60;65.90;;;;;;5096316;28;20031;-77
2023/12/29 11:01:25;;;;;;;5.55;4.55;;;9.60;65.80;;;;;;5095559;28;20097;-79
2023/12/29 11:04:02;;;;;;;5.40;4.18;;;9.60;65.80;;;;;;5095500;28;20034;-80
2023/12/29 11:06:29;;;;;;;6.78;4.63;;;9.60;65.70;;;;;;5111543;27;20054;-79
2023/12/29 11:08:56;;;;;;;5.90;4.47;;;9.60;65.60;;;;;;5133945;27;20031;-79
2023/12/29 11:11:23;;;;;;;6.28;4.30;;;9.60;65.60;;;;;;5116053;27;20468;-81
2023/12/29 11:13:50;;;;;;;5.57;4.30;;;9.60;65.60;;;;;;5134494;27;20027;-79
2023/12/29 11:16:21;;;;;;;6.70;4.93;;;9.60;65.60;;;;;;5115539;27;20039;-81
2023/12/29 11:18:51;;;;;;;7.68;4.75;;;9.60;65.50;;;;;;5134079;27;20023;-80
2023/12/29 11:21:17;;;;;;;6.57;4.80;;;9.60;65.50;;;;;;5115518;27;20023;-79
2023/12/29 11:23:43;;;;;;;5.78;4.50;;;9.60;65.50;;;;;;5125046;27;20030;-82
2023/12/29 11:26:09;;;;;;;5.65;4.38;;;9.60;65.50;;;;;;5121282;27;20035;-75
2023/12/29 11:28:35;;;;;;;5.55;4.35;;;9.60;65.50;;;;;;5106499;28;20038;-81
2023/12/29 11:31:01;;;;;;;5.18;4.30;;;9.60;65.50;;;;;;5129415;27;20038;-82
2023/12/29 11:33:34;;;;;;;5.03;4.28;;;9.60;65.40;;;;;;5133257;27;20106;-76
2023/12/29 11:36:12;;;;;;;5.80;4.28;;;9.60;65.40;;;;;;5111688;27;20441;-82
2023/12/29 11:38:54;;;;;;;5.93;4.45;;;9.60;65.30;;;;;;5116706;27;20461;-79
2023/12/29 11:41:53;;;;;;;5.68;4.60;;;9.70;65.30;;;;;;5115397;27;20024;-80
2023/12/29 11:44:27;;;;;;;6.68;4.20;;;9.70;65.30;;;;;;5111502;28;20035;-80
2023/12/29 11:46:53;;;;;;;5.97;4.47;;;9.70;65.20;;;;;;5114696;28;20058;-78
2023/12/29 11:49:19;;;;;;;5.53;4.22;;;9.80;65.20;;;;;;5113201;28;20124;-78
2023/12/29 11:51:49;;;;;;;5.40;4.25;;;9.80;65.20;;;;;;5114167;28;20066;-77
2023/12/29 11:54:26;;;;;;;6.35;4.65;;;9.80;65.10;;;;;;5114848;28;20072;-78
2023/12/29 11:56:53;;;;;;;5.40;4.45;;;9.80;65.10;;;;;;5114568;28;20024;-80
2023/12/29 11:59:27;;;;;;;5.72;4.43;;;9.90;65.20;;;;;;5112695;28;20058;-80
2023/12/29 12:01:54;;;;;;;5.80;4.43;;;9.90;65.10;;;;;;5113040;28;20497;-80
2023/12/29 12:04:40;;;;;;;5.82;4.47;;;9.90;65.10;;;;;;5112997;28;20055;-78
2023/12/29 12:07:13;;;;;;;5.50;4.57;;;9.90;65.10;;;;;;5111304;28;20088;-78
2023/12/29 12:09:39;;;;;;;4.28;3.83;;;10.00;65.00;;;;;;5111732;28;20024;-79
2023/12/29 12:12:05;;;;;;;6.07;4.20;;;10.00;65.00;;;;;;5114607;28;20031;-79
2023/12/29 12:14:50;;;;;;;6.32;4.15;;;10.00;65.00;;;;;;5115041;28;20027;-79
2023/12/29 12:17:30;;;;;;;5.10;4.03;;;10.00;65.00;;;;;;5114991;28;20027;-80
2023/12/29 12:20:10;;;;;;;6.18;4.55;;;10.00;65.00;;;;;;5133647;27;20027;-79
2023/12/29 12:22:37;;;;;;;5.38;4.03;;;10.00;64.90;;;;;;5115077;28;20027;-80
2023/12/29 12:25:03;;;;;;;6.28;4.35;;;10.00;64.90;;;;;;5133263;27;20027;-79
2023/12/29 12:27:31;;;;;;;5.00;4.15;;;10.00;64.90;;;;;;5114431;28;20083;-80
2023/12/29 12:29:59;;;;;;;5.47;4.13;;;10.00;64.90;;;;;;5114760;28;20381;-80
2023/12/29 12:32:29;;;;;;;5.10;3.78;;;10.00;64.80;;;;;;5114697;28;20062;-78
2023/12/29 12:34:56;;;;;;;6.70;4.50;;;10.00;64.90;;;;;;5114682;28;20102;-78
2023/12/29 12:37:26;;;;;;;5.18;4.20;;;10.00;64.90;;;;;;5114557;28;20035;-79
2023/12/29 12:39:52;;;;;;;7.35;4.88;;;10.00;64.90;;;;;;5114639;28;20110;-79
2023/12/29 12:42:20;;;;;;;5.40;4.05;;;10.00;64.90;;;;;;5114685;28;20167;-79
2023/12/29 12:45:02;;;;;;;5.80;4.03;;;9.90;64.90;;;;;;5114418;28;20481;-80
2023/12/29 12:48:02;;;;;;;5.18;4.30;;;9.90;64.90;;;;;;5131237;28;20023;-80
2023/12/29 12:50:28;;;;;;;5.25;4.13;;;9.90;65.00;;;;;;5097199;28;20127;-79
2023/12/29 12:52:57;;;;;;;5.88;4.30;;;9.90;65.00;;;;;;5111252;28;20107;-79
2023/12/29 12:55:23;;;;;;;5.55;4.25;;;9.90;65.00;;;;;;5115763;28;20091;-78
2023/12/29 12:57:49;;;;;;;6.28;4.53;;;9.90;65.00;;;;;;5116062;28;20089;-78
2023/12/29 13:00:16;;;;;;;6.20;4.32;;;9.90;65.10;;;;;;5114622;28;20032;-79